createdAt,value
2023-03-21T00:01:04.010Z,1.95
2023-03-21T00:03:35.530Z,1.97
2023-03-21T00:06:07.898Z,1.99
2023-03-21T00:08:36.285Z,1.99
2023-03-21T00:11:08.217Z,1.95
2023-03-21T00:13:38.849Z,1.88
2023-03-21T00:16:19.657Z,1.90
2023-03-21T00:18:55.144Z,1.92
2023-03-21T00:24:16.849Z,2.01
2023-03-21T00:26:44.934Z,1.99
2023-03-21T00:29:12.731Z,2.00
2023-03-21T00:31:43.877Z,2.05
2023-03-21T00:36:41.054Z,1.89
2023-03-21T00:39:09.146Z,1.91
2023-03-21T00:41:44.555Z,1.90
2023-03-21T00:44:16.155Z,2.02
2023-03-21T00:46:57.092Z,2.10
2023-03-21T00:49:34.247Z,2.17
2023-03-21T00:52:15.242Z,2.18
2023-03-21T00:54:44.412Z,2.16
2023-03-21T00:57:12.479Z,2.17
2023-03-21T00:59:40.902Z,2.20
2023-03-21T01:02:23.449Z,2.18
2023-03-21T01:04:51.898Z,2.15
2023-03-21T01:07:19.978Z,2.12
2023-03-21T01:09:47.857Z,2.17
2023-03-21T01:12:17.130Z,2.19
2023-03-21T01:14:45.542Z,2.25
2023-03-21T01:17:13.441Z,2.23
2023-03-21T01:19:51.711Z,2.19
2023-03-21T01:22:20.547Z,2.22
2023-03-21T01:24:55.587Z,2.24
2023-03-21T01:27:29.435Z,2.31
2023-03-21T01:29:57.831Z,2.34
2023-03-21T01:32:26.759Z,2.34
2023-03-21T01:34:54.831Z,2.37
2023-03-21T01:37:24.042Z,2.42
2023-03-21T01:39:52.005Z,2.45
2023-03-21T01:42:20.445Z,2.47
2023-03-21T01:45:00.108Z,2.50
2023-03-21T01:47:37.782Z,2.52
2023-03-21T01:50:17.543Z,2.51
2023-03-21T01:53:08.545Z,2.53
2023-03-21T01:55:38.261Z,2.54
2023-03-21T01:58:18.449Z,2.54
2023-03-21T02:01:01.522Z,2.56
2023-03-21T02:03:50.871Z,2.58
2023-03-21T02:07:12.962Z,2.59
2023-03-21T02:09:47.688Z,2.55
2023-03-21T02:12:26.416Z,2.61
2023-03-21T02:14:57.104Z,2.62
2023-03-21T02:17:49.491Z,2.66
2023-03-21T02:20:42.292Z,2.69
2023-03-21T02:23:18.279Z,2.70
2023-03-21T02:26:08.706Z,2.69
2023-03-21T02:29:17.667Z,2.70
2023-03-21T02:31:45.937Z,2.68
2023-03-21T02:34:36.518Z,2.70
2023-03-21T02:37:12.897Z,2.63
2023-03-21T02:39:48.910Z,2.61
2023-03-21T02:42:37.890Z,2.63
2023-03-21T02:45:20.117Z,2.66
2023-03-21T02:48:05.102Z,2.66
2023-03-21T02:50:46.824Z,2.74
2023-03-21T02:53:17.226Z,2.72
2023-03-21T02:55:46.653Z,2.77
2023-03-21T02:58:20.537Z,2.82
2023-03-21T03:00:55.619Z,2.80
2023-03-21T03:03:47.968Z,2.80
2023-03-21T03:06:49.142Z,2.86
2023-03-21T03:09:42.385Z,2.91
2023-03-21T03:12:19.737Z,2.93
2023-03-21T03:15:08.588Z,2.88
2023-03-21T03:18:07.537Z,2.92
2023-03-21T03:20:44.709Z,2.84
2023-03-21T03:23:26.283Z,2.83
2023-03-21T03:26:05.332Z,2.79
2023-03-21T03:28:37.330Z,2.82
2023-03-21T03:31:13.102Z,2.87
2023-03-21T03:33:46.976Z,2.89
2023-03-21T03:36:31.200Z,2.99
2023-03-21T03:39:05.076Z,2.95
2023-03-21T03:42:02.971Z,3.01
2023-03-21T03:44:28.872Z,3.10
2023-03-21T03:47:05.098Z,3.07
2023-03-21T03:49:38.939Z,3.13
2023-03-21T03:52:36.734Z,3.27
2023-03-21T03:55:14.901Z,3.31
2023-03-21T03:57:44.201Z,3.36
2023-03-21T04:00:14.313Z,3.46
2023-03-21T04:02:53.294Z,3.51
2023-03-21T04:05:25.351Z,3.54
2023-03-21T04:07:55.086Z,3.59
2023-03-21T04:10:33.693Z,3.61
2023-03-21T04:13:01.934Z,3.63
2023-03-21T04:15:46.001Z,3.69
2023-03-21T04:18:18.254Z,3.78
2023-03-21T04:20:49.576Z,3.86
2023-03-21T04:23:20.691Z,3.94
2023-03-21T04:25:56.713Z,4.02
2023-03-21T04:28:36.630Z,4.04
2023-03-21T04:31:26.460Z,4.12
2023-03-21T04:34:10.198Z,4.20
2023-03-21T04:36:44.875Z,4.33
2023-03-21T04:39:14.583Z,4.45
2023-03-21T04:41:46.901Z,4.54
2023-03-21T04:44:22.962Z,4.63
2023-03-21T04:46:52.264Z,4.66
2023-03-21T04:49:21.679Z,4.70
2023-03-21T04:51:49.825Z,4.80
2023-03-21T04:54:21.410Z,4.87
2023-03-21T04:56:49.317Z,5.00
2023-03-21T04:59:17.506Z,5.13
2023-03-21T05:01:45.859Z,5.26
2023-03-21T05:04:14.744Z,5.40
2023-03-21T05:06:43.035Z,5.49
2023-03-21T05:09:11.028Z,5.64
2023-03-21T05:11:40.610Z,5.79
2023-03-21T05:14:12.112Z,5.93
2023-03-21T05:16:49.328Z,6.08
2023-03-21T05:19:19.304Z,6.23
2023-03-21T05:21:49.264Z,6.36
2023-03-21T05:24:24.201Z,6.52
2023-03-21T05:26:56.546Z,6.65
2023-03-21T05:29:30.545Z,6.78
2023-03-21T05:32:02.383Z,6.88
2023-03-21T05:34:32.323Z,7.01
2023-03-21T05:37:02.252Z,7.28
2023-03-21T05:39:44.108Z,7.45
2023-03-21T05:42:19.202Z,7.50
2023-03-21T05:44:49.602Z,7.66
2023-03-21T05:47:24.507Z,7.80
2023-03-21T05:49:55.016Z,7.95
2023-03-21T05:52:25.576Z,8.01
2023-03-21T05:54:57.701Z,8.25
2023-03-21T05:57:39.453Z,8.42
2023-03-21T06:00:10.695Z,8.57
2023-03-21T06:03:04.736Z,8.71
2023-03-21T06:05:58.708Z,8.89
2023-03-21T06:08:35.754Z,8.97
2023-03-21T06:11:24.754Z,8.99
2023-03-21T06:13:58.712Z,9.12
2023-03-21T06:16:27.040Z,9.29
2023-03-21T06:18:57.220Z,9.42
2023-03-21T06:21:38.481Z,9.49
2023-03-21T06:24:11.215Z,9.39
2023-03-21T06:26:45.089Z,9.54
2023-03-21T06:29:14.320Z,9.62
2023-03-21T06:31:51.607Z,9.78
2023-03-21T06:34:20.974Z,9.79
2023-03-21T06:36:52.527Z,9.81
2023-03-21T06:39:22.522Z,9.69
2023-03-21T06:41:50.848Z,9.71
2023-03-21T06:44:20.143Z,9.88
2023-03-21T06:46:56.982Z,9.78
2023-03-21T06:49:26.732Z,9.89
2023-03-21T06:51:57.766Z,10.09
2023-03-21T06:54:27.083Z,10.08
2023-03-21T06:57:05.558Z,9.80
2023-03-21T06:59:36.727Z,9.87
2023-03-21T07:02:21.027Z,9.94
2023-03-21T07:04:59.785Z,9.90
2023-03-21T07:07:31.026Z,9.70
2023-03-21T07:09:59.585Z,9.81
2023-03-21T07:12:36.090Z,10.04
2023-03-21T07:15:16.871Z,10.10
2023-03-21T07:17:47.815Z,9.94
2023-03-21T07:20:16.393Z,10.05
2023-03-21T07:22:44.705Z,10.11
2023-03-21T07:25:21.137Z,10.13
2023-03-21T07:27:49.794Z,10.22
2023-03-21T07:30:18.823Z,10.30
2023-03-21T07:32:48.286Z,10.34
2023-03-21T07:35:18.083Z,10.53
2023-03-21T07:37:51.960Z,10.62
2023-03-21T07:40:20.486Z,10.67
2023-03-21T07:42:50.652Z,10.73
2023-03-21T07:45:34.257Z,10.59
2023-03-21T07:48:02.606Z,10.63
2023-03-21T07:50:35.179Z,10.89
2023-03-21T07:53:06.585Z,10.91
2023-03-21T07:55:38.183Z,10.97
2023-03-21T07:58:11.115Z,11.12
2023-03-21T08:00:41.239Z,10.70
2023-03-21T08:03:10.621Z,10.82
2023-03-21T08:05:41.633Z,10.95
2023-03-21T08:08:10.881Z,10.99
2023-03-21T08:10:38.853Z,11.22
2023-03-21T08:13:09.713Z,11.12
2023-03-21T08:15:44.143Z,11.22
2023-03-21T08:18:12.843Z,11.32
2023-03-21T08:20:43.719Z,11.29
2023-03-21T08:23:18.960Z,11.39
2023-03-21T08:25:47.569Z,11.42
2023-03-21T08:28:16.231Z,11.61
2023-03-21T08:30:44.226Z,11.71
2023-03-21T08:33:13.618Z,11.82
2023-03-21T08:35:47.130Z,11.68
2023-03-21T08:38:15.644Z,12.01
2023-03-21T08:40:43.937Z,12.12
2023-03-21T08:43:15.197Z,12.08
2023-03-21T08:45:43.932Z,12.15
2023-03-21T08:48:20.394Z,12.29
2023-03-21T08:50:50.473Z,12.26
2023-03-21T08:53:18.385Z,12.34
2023-03-21T08:55:47.044Z,12.44
2023-03-21T08:58:16.251Z,12.83
2023-03-21T09:00:46.706Z,12.66
2023-03-21T09:03:14.962Z,12.77
2023-03-21T09:05:46.296Z,12.66
2023-03-21T09:08:14.388Z,12.50
2023-03-21T09:10:43.438Z,12.71
2023-03-21T09:13:19.432Z,13.04
2023-03-21T09:15:48.324Z,12.29
2023-03-21T09:18:36.535Z,12.74
2023-03-21T09:21:13.853Z,13.10
2023-03-21T09:23:42.824Z,13.29
2023-03-21T09:26:11.571Z,13.68
2023-03-21T09:28:40.954Z,13.65
2023-03-21T09:31:12.647Z,13.76
2023-03-21T09:33:42.120Z,14.26
2023-03-21T09:36:14.829Z,14.28
2023-03-21T09:38:47.163Z,14.72
2023-03-21T09:41:53.141Z,14.90
2023-03-21T09:44:45.686Z,14.78
2023-03-21T09:47:29.515Z,14.81
2023-03-21T09:50:18.051Z,14.65
2023-03-21T09:55:50.548Z,15.05
2023-03-21T09:58:55.180Z,15.36
2023-03-21T10:01:31.246Z,15.27
2023-03-21T10:04:06.161Z,15.32
2023-03-21T10:06:41.556Z,15.02
2023-03-21T10:09:22.992Z,15.33
2023-03-21T10:12:19.977Z,15.31
2023-03-21T10:14:52.232Z,15.70
2023-03-21T10:17:42.056Z,15.18
2023-03-21T10:20:25.179Z,15.53
2023-03-21T10:22:56.463Z,15.26
2023-03-21T10:25:32.794Z,15.43
2023-03-21T10:28:04.791Z,15.55
2023-03-21T10:30:37.579Z,15.19
2023-03-21T10:33:10.278Z,15.36
2023-03-21T10:35:40.636Z,15.36
2023-03-21T10:38:13.498Z,15.40
2023-03-21T10:40:41.211Z,15.40
2023-03-21T10:43:28.409Z,15.75
2023-03-21T10:45:58.417Z,15.51
2023-03-21T10:49:10.745Z,15.47
2023-03-21T10:51:39.496Z,15.78
2023-03-21T10:54:13.671Z,16.13
2023-03-21T10:56:46.063Z,16.25
2023-03-21T10:59:20.095Z,15.99
2023-03-21T11:01:52.529Z,16.02
2023-03-21T11:04:21.028Z,16.31
2023-03-21T11:07:02.603Z,15.74
2023-03-21T11:09:52.516Z,16.24
2023-03-21T11:12:37.550Z,16.04
2023-03-21T11:15:40.279Z,16.12
2023-03-21T11:18:20.611Z,16.22
2023-03-21T11:20:56.221Z,16.18
2023-03-21T11:23:30.847Z,16.79
2023-03-21T11:25:59.557Z,16.38
2023-03-21T11:28:34.091Z,16.79
2023-03-21T11:31:05.390Z,16.57
2023-03-21T11:33:36.732Z,16.71
2023-03-21T11:36:07.382Z,16.75
2023-03-21T11:38:39.003Z,16.76
2023-03-21T11:41:07.160Z,16.78
2023-03-21T11:43:38.986Z,16.93
2023-03-21T11:46:09.166Z,16.88
2023-03-21T11:48:40.848Z,16.37
2023-03-21T11:51:18.948Z,16.45
2023-03-21T11:53:49.055Z,16.74
2023-03-21T11:56:35.021Z,16.85
2023-03-21T11:59:26.578Z,16.67
2023-03-21T12:02:01.010Z,16.83
2023-03-21T12:05:01.732Z,17.17
2023-03-21T12:08:20.326Z,17.34
2023-03-21T12:10:54.162Z,17.28
2023-03-21T12:13:58.225Z,17.36
2023-03-21T12:16:38.217Z,17.07
2023-03-21T12:19:14.289Z,16.93
2023-03-21T12:22:03.019Z,17.11
2023-03-21T12:24:57.759Z,16.82
2023-03-21T12:27:34.246Z,15.98
2023-03-21T12:30:16.535Z,16.74
2023-03-21T12:32:50.161Z,16.96
2023-03-21T12:36:02.948Z,17.61
2023-03-21T12:38:37.211Z,18.18
2023-03-21T12:41:44.105Z,18.64
2023-03-21T12:44:18.405Z,18.49
2023-03-21T12:46:52.997Z,17.87
2023-03-21T12:49:23.749Z,18.57
2023-03-21T12:51:53.792Z,18.77
2023-03-21T12:54:28.435Z,18.90
2023-03-21T12:57:02.368Z,19.20
2023-03-21T13:00:10.880Z,19.20
2023-03-21T13:02:41.679Z,18.74
2023-03-21T13:05:32.422Z,19.34
2023-03-21T13:08:04.712Z,19.16
2023-03-21T13:10:32.553Z,19.03
2023-03-21T13:13:24.657Z,18.82
2023-03-21T13:16:18.771Z,18.97
2023-03-21T13:19:24.009Z,18.72
2023-03-21T13:22:03.285Z,19.12
2023-03-21T13:24:48.744Z,19.18
2023-03-21T13:27:31.478Z,19.48
2023-03-21T13:30:07.114Z,19.89
2023-03-21T13:32:38.639Z,20.05
2023-03-21T13:35:12.863Z,19.69
2023-03-21T13:37:43.619Z,20.02
2023-03-21T13:40:22.526Z,19.58
2023-03-21T13:42:59.708Z,19.90
2023-03-21T13:45:33.060Z,19.52
2023-03-21T13:48:06.213Z,19.14
2023-03-21T13:50:36.725Z,19.10
2023-03-21T13:53:16.497Z,19.40
2023-03-21T13:55:48.211Z,19.84
2023-03-21T13:58:23.801Z,20.00
2023-03-21T14:01:17.494Z,20.62
2023-03-21T14:03:46.807Z,19.82
2023-03-21T14:06:15.258Z,20.35
2023-03-21T14:08:46.038Z,20.81
2023-03-21T14:11:17.330Z,20.73
2023-03-21T14:13:51.289Z,20.92
2023-03-21T14:16:19.390Z,20.91
2023-03-21T14:18:56.433Z,20.98
2023-03-21T14:21:30.523Z,21.05
2023-03-21T14:23:59.996Z,20.87
2023-03-21T14:26:41.946Z,21.14
2023-03-21T14:29:25.165Z,21.07
2023-03-21T14:31:55.655Z,21.00
2023-03-21T14:34:24.829Z,20.23
2023-03-21T14:36:58.198Z,19.92
2023-03-21T14:39:31.212Z,18.72
2023-03-21T14:42:07.295Z,18.91
2023-03-21T14:44:54.506Z,17.79
2023-03-21T14:47:24.173Z,17.59
2023-03-21T14:49:51.998Z,17.39
2023-03-21T14:52:24.446Z,17.08
2023-03-21T14:54:52.169Z,17.11
2023-03-21T14:57:22.154Z,16.98
2023-03-21T14:59:52.239Z,16.70
2023-03-21T15:02:25.559Z,16.60
2023-03-21T15:04:56.637Z,16.30
2023-03-21T15:07:29.814Z,16.01
2023-03-21T15:10:01.022Z,16.16
2023-03-21T15:12:35.014Z,15.80
2023-03-21T15:15:02.994Z,15.93
2023-03-21T15:17:31.728Z,15.88
2023-03-21T15:19:59.321Z,15.74
2023-03-21T15:22:38.763Z,15.69
2023-03-21T15:25:08.410Z,15.55
2023-03-21T15:27:40.852Z,15.32
2023-03-21T15:30:26.500Z,15.21
2023-03-21T15:32:56.731Z,14.96
2023-03-21T15:35:32.013Z,14.88
2023-03-21T15:37:59.691Z,14.68
2023-03-21T15:40:31.798Z,14.60
2023-03-21T15:43:16.266Z,14.45
2023-03-21T15:45:56.122Z,14.31
2023-03-21T15:48:28.317Z,14.17
2023-03-21T15:50:56.163Z,13.91
2023-03-21T15:53:24.263Z,13.86
2023-03-21T15:55:57.299Z,13.75
2023-03-21T15:58:34.756Z,13.53
2023-03-21T16:01:08.235Z,13.41
2023-03-21T16:03:37.724Z,13.36
2023-03-21T16:06:15.509Z,13.33
2023-03-21T16:08:53.442Z,13.27
2023-03-21T16:11:27.244Z,13.13
2023-03-21T16:13:55.864Z,13.07
2023-03-21T16:16:25.152Z,13.02
2023-03-21T16:19:02.828Z,12.87
2023-03-21T16:21:31.699Z,12.82
2023-03-21T16:23:59.262Z,12.85
2023-03-21T16:26:31.618Z,12.73
2023-03-21T16:28:59.353Z,12.67
2023-03-21T16:31:31.496Z,12.65
2023-03-21T16:34:00.011Z,12.62
2023-03-21T16:36:32.936Z,12.57
2023-03-21T16:39:02.320Z,12.47
2023-03-21T16:41:30.198Z,12.46
2023-03-21T16:43:57.727Z,12.45
2023-03-21T16:46:26.374Z,12.41
2023-03-21T16:48:55.656Z,12.35
2023-03-21T16:51:32.178Z,12.43
2023-03-21T16:53:59.839Z,12.39
2023-03-21T16:56:48.094Z,12.44
2023-03-21T16:59:15.702Z,12.40
2023-03-21T17:01:46.309Z,12.41
2023-03-21T17:04:14.965Z,12.39
2023-03-21T17:06:47.661Z,12.43
2023-03-21T17:09:16.102Z,12.38
2023-03-21T17:11:52.215Z,12.32
2023-03-21T17:14:21.787Z,12.28
2023-03-21T17:16:49.459Z,12.19
2023-03-21T17:19:19.247Z,12.22
2023-03-21T17:21:47.569Z,12.13
2023-03-21T17:24:15.808Z,12.17
2023-03-21T17:26:43.838Z,12.13
2023-03-21T17:29:13.463Z,12.16
2023-03-21T17:31:41.321Z,12.14
2023-03-21T17:34:09.904Z,12.27
2023-03-21T17:36:38.976Z,12.30
2023-03-21T17:39:09.061Z,12.20
2023-03-21T17:41:37.074Z,12.28
2023-03-21T17:44:04.899Z,12.38
2023-03-21T17:46:36.913Z,12.41
2023-03-21T17:49:05.478Z,12.42
2023-03-21T17:51:33.965Z,12.47
2023-03-21T17:54:01.697Z,12.48
2023-03-21T17:56:31.926Z,12.44
2023-03-21T17:59:03.823Z,12.42
2023-03-21T18:01:33.066Z,12.44
2023-03-21T18:04:03.043Z,12.46
2023-03-21T18:06:30.904Z,12.51
2023-03-21T18:08:59.637Z,12.46
2023-03-21T18:11:28.222Z,12.40
2023-03-21T18:14:09.875Z,12.47
2023-03-21T18:16:41.949Z,12.40
2023-03-21T18:19:13.595Z,12.37
2023-03-21T18:21:45.511Z,12.37
2023-03-21T18:24:14.182Z,12.34
2023-03-21T18:26:43.063Z,12.40
2023-03-21T18:32:07.821Z,12.28
2023-03-21T18:34:37.690Z,12.34
2023-03-21T18:37:09.331Z,12.38
2023-03-21T18:39:38.531Z,12.39
2023-03-21T18:42:06.941Z,12.36
2023-03-21T18:44:43.713Z,12.34
2023-03-21T18:47:12.701Z,12.36
2023-03-21T18:52:30.281Z,12.36
2023-03-21T18:54:58.826Z,12.38
2023-03-21T18:57:36.376Z,12.35
2023-03-21T19:00:14.867Z,12.37
2023-03-21T19:02:48.482Z,12.35
2023-03-21T19:05:23.257Z,12.29
2023-03-21T19:07:53.707Z,12.14
2023-03-21T19:10:22.825Z,12.10
2023-03-21T19:12:55.018Z,11.92
2023-03-21T19:15:25.206Z,11.89
2023-03-21T19:20:47.748Z,11.82
2023-03-21T19:23:18.846Z,11.76
2023-03-21T19:25:47.868Z,11.71
2023-03-21T19:28:17.880Z,11.62
2023-03-21T19:30:50.246Z,11.49
2023-03-21T19:33:24.882Z,11.31
2023-03-21T19:36:10.748Z,11.30
2023-03-21T19:38:41.130Z,11.27
2023-03-21T19:41:10.381Z,11.17
2023-03-21T19:43:40.146Z,11.05
2023-03-21T19:46:09.373Z,10.90
2023-03-21T19:48:38.634Z,10.86
2023-03-21T19:51:26.725Z,10.79
2023-03-21T19:53:56.572Z,10.60
2023-03-21T19:56:27.076Z,10.46
2023-03-21T19:58:57.061Z,10.35
2023-03-21T20:01:25.307Z,10.22
2023-03-21T20:03:56.913Z,10.14
2023-03-21T20:06:29.366Z,10.05
2023-03-21T20:09:41.431Z,9.93
2023-03-21T20:11:47.989Z,9.77
2023-03-21T20:14:17.482Z,9.68
2023-03-21T20:16:45.297Z,9.57
2023-03-21T20:19:16.415Z,9.48
2023-03-21T20:21:53.077Z,9.41
2023-03-21T20:24:28.552Z,9.24
2023-03-21T20:26:57.470Z,9.22
2023-03-21T20:30:07.408Z,9.16
2023-03-21T20:32:14.860Z,9.08
2023-03-21T20:34:44.550Z,8.98
2023-03-21T20:37:13.384Z,9.00
2023-03-21T20:39:41.629Z,8.95
2023-03-21T20:42:09.785Z,8.79
2023-03-21T20:44:57.776Z,8.67
2023-03-21T20:47:26.582Z,8.57
2023-03-21T20:50:00.602Z,8.46
2023-03-21T20:52:57.560Z,8.42
2023-03-21T20:55:19.079Z,8.18
2023-03-21T20:57:48.787Z,8.07
2023-03-21T21:00:18.546Z,8.03
2023-03-21T21:02:50.859Z,7.96
2023-03-21T21:05:35.708Z,7.96
2023-03-21T21:08:05.504Z,7.89
2023-03-21T21:10:35.050Z,7.97
2023-03-21T21:13:08.593Z,7.83
2023-03-21T21:15:37.789Z,7.90
2023-03-21T21:18:07.853Z,7.80
2023-03-21T21:20:37.691Z,7.76
2023-03-21T21:23:09.812Z,7.75
2023-03-21T21:25:40.641Z,7.75
2023-03-21T21:28:09.868Z,7.79
2023-03-21T21:30:42.095Z,7.82
2023-03-21T21:33:10.713Z,7.81
2023-03-21T21:35:39.177Z,7.67
2023-03-21T21:38:07.428Z,7.64
2023-03-21T21:40:36.709Z,7.47
2023-03-21T21:43:08.118Z,7.49
2023-03-21T21:45:37.294Z,7.44
2023-03-21T21:48:05.804Z,7.48
2023-03-21T21:50:34.315Z,7.47
2023-03-21T21:53:04.416Z,7.50
2023-03-21T21:55:34.724Z,7.35
2023-03-21T21:58:04.256Z,7.30
2023-03-21T22:00:33.053Z,7.18
2023-03-21T22:03:01.554Z,7.11
2023-03-21T22:05:30.689Z,7.07
2023-03-21T22:08:04.552Z,7.09
2023-03-21T22:10:32.980Z,7.10
2023-03-21T22:13:01.712Z,7.12
2023-03-21T22:15:29.818Z,7.25
2023-03-21T22:17:58.901Z,7.24
2023-03-21T22:20:27.092Z,7.29
2023-03-21T22:23:03.026Z,7.30
2023-03-21T22:25:33.358Z,7.26
2023-03-21T22:28:01.436Z,7.25
2023-03-21T22:30:29.281Z,7.24
2023-03-21T22:33:08.973Z,7.26
2023-03-21T22:35:42.831Z,7.25
2023-03-21T22:38:11.466Z,7.25
2023-03-21T22:40:39.938Z,7.22
2023-03-21T22:43:09.214Z,7.19
2023-03-21T22:45:37.982Z,7.15
2023-03-21T22:48:06.556Z,7.21
2023-03-21T22:50:36.527Z,7.25
2023-03-21T22:53:04.488Z,7.17
2023-03-21T22:55:32.380Z,7.16
2023-03-21T22:58:00.680Z,7.15
2023-03-21T23:00:29.118Z,7.15
2023-03-21T23:02:57.499Z,7.13
2023-03-21T23:05:25.404Z,7.15
2023-03-21T23:07:59.757Z,7.18
2023-03-21T23:10:29.298Z,7.15
2023-03-21T23:12:59.282Z,7.07
2023-03-21T23:15:32.946Z,7.01
2023-03-21T23:18:06.520Z,7.03
2023-03-21T23:20:35.484Z,7.02
2023-03-21T23:23:03.884Z,7.00
2023-03-21T23:25:33.959Z,7.03
2023-03-21T23:28:02.986Z,6.89
2023-03-21T23:30:31.332Z,6.93
2023-03-21T23:32:59.474Z,6.93
2023-03-21T23:35:29.074Z,6.94
2023-03-21T23:37:57.132Z,6.96
2023-03-21T23:40:25.686Z,6.92
2023-03-21T23:42:53.964Z,6.91
2023-03-21T23:45:22.332Z,6.90
2023-03-21T23:47:51.675Z,6.83
2023-03-21T23:50:30.193Z,6.85
2023-03-21T23:53:05.975Z,6.87
2023-03-21T23:55:37.988Z,6.86
2023-03-21T23:58:09.555Z,6.89
